sensor_id;sensor_type;location;lat;lon;timestamp;pressure;altitude;pressure_sealevel;temperature;humidity
51313;BME280;37397;53.226;10.400;2023-08-12T00:02:16;101350.28;;;22.34;58.46
51313;BME280;37397;53.226;10.400;2023-08-12T00:04:42;101352.97;;;22.32;58.30
51313;BME280;37397;53.226;10.400;2023-08-12T00:07:09;101348.47;;;22.31;58.65
51313;BME280;37397;53.226;10.400;2023-08-12T00:09:36;101355.34;;;22.28;58.62
51313;BME280;37397;53.226;10.400;2023-08-12T00:12:03;101345.06;;;22.27;58.46
51313;BME280;37397;53.226;10.400;2023-08-12T00:14:29;101341.69;;;22.22;58.57
51313;BME280;37397;53.226;10.400;2023-08-12T00:16:56;101342.47;;;22.23;58.62
51313;BME280;37397;53.226;10.400;2023-08-12T00:19:23;101337.22;;;22.21;58.60
51313;BME280;37397;53.226;10.400;2023-08-12T00:21:49;101345.69;;;22.19;58.60
51313;BME280;37397;53.226;10.400;2023-08-12T00:24:18;101336.75;;;22.17;58.65
51313;BME280;37397;53.226;10.400;2023-08-12T00:26:45;101338.63;;;22.15;58.68
51313;BME280;37397;53.226;10.400;2023-08-12T00:29:11;101327.00;;;22.15;58.84
51313;BME280;37397;53.226;10.400;2023-08-12T00:31:38;101330.47;;;22.13;58.87
51313;BME280;37397;53.226;10.400;2023-08-12T00:34:05;101333.16;;;22.11;58.85
51313;BME280;37397;53.226;10.400;2023-08-12T00:36:31;101325.75;;;22.10;58.89
51313;BME280;37397;53.226;10.400;2023-08-12T00:38:58;101334.25;;;22.08;58.84
51313;BME280;37397;53.226;10.400;2023-08-12T00:41:24;101329.75;;;22.07;58.78
51313;BME280;37397;53.226;10.400;2023-08-12T00:43:51;101326.63;;;22.05;58.90
51313;BME280;37397;53.226;10.400;2023-08-12T00:46:17;101329.31;;;22.03;58.80
51313;BME280;37397;53.226;10.400;2023-08-12T00:48:44;101316.09;;;22.02;58.76
51313;BME280;37397;53.226;10.400;2023-08-12T00:51:11;101320.38;;;22.01;58.91
51313;BME280;37397;53.226;10.400;2023-08-12T00:53:38;101322.25;;;21.98;58.86
51313;BME280;37397;53.226;10.400;2023-08-12T00:56:04;101317.75;;;21.97;59.05
51313;BME280;37397;53.226;10.400;2023-08-12T00:58:33;101312.25;;;21.94;58.94
51313;BME280;37397;53.226;10.400;2023-08-12T01:00:59;101308.03;;;21.95;59.00
51313;BME280;37397;53.226;10.400;2023-08-12T01:03:26;101313.59;;;21.93;58.91
51313;BME280;37397;53.226;10.400;2023-08-12T01:05:53;101307.31;;;21.89;59.08
51313;BME280;37397;53.226;10.400;2023-08-12T01:08:20;101311.81;;;21.90;59.06
51313;BME280;37397;53.226;10.400;2023-08-12T01:10:52;101301.28;;;21.87;59.09
51313;BME280;37397;53.226;10.400;2023-08-12T01:13:31;101307.09;;;21.87;59.04
51313;BME280;37397;53.226;10.400;2023-08-12T01:16:00;101303.94;;;21.84;59.08
51313;BME280;37397;53.226;10.400;2023-08-12T01:18:30;101309.53;;;21.82;59.02
51313;BME280;37397;53.226;10.400;2023-08-12T01:20:58;101309.84;;;21.79;59.18
51313;BME280;37397;53.226;10.400;2023-08-12T01:23:25;101309.28;;;21.80;59.20
51313;BME280;37397;53.226;10.400;2023-08-12T01:25:52;101301.13;;;21.79;59.00
51313;BME280;37397;53.226;10.400;2023-08-12T01:28:19;101303.00;;;21.76;59.27
51313;BME280;37397;53.226;10.400;2023-08-12T01:30:52;101300.91;;;21.77;59.30
51313;BME280;37397;53.226;10.400;2023-08-12T01:33:28;101306.47;;;21.75;59.30
51313;BME280;37397;53.226;10.400;2023-08-12T01:36:09;101298.06;;;21.71;59.37
51313;BME280;37397;53.226;10.400;2023-08-12T01:38:38;101301.75;;;21.72;59.35
51313;BME280;37397;53.226;10.400;2023-08-12T01:41:09;101294.69;;;21.67;59.21
51313;BME280;37397;53.226;10.400;2023-08-12T01:43:37;101294.13;;;21.68;59.30
51313;BME280;37397;53.226;10.400;2023-08-12T01:46:04;101296.25;;;21.68;59.35
51313;BME280;37397;53.226;10.400;2023-08-12T01:48:30;101296.03;;;21.66;59.32
51313;BME280;37397;53.226;10.400;2023-08-12T01:50:57;101285.72;;;21.65;59.33
51313;BME280;37397;53.226;10.400;2023-08-12T01:53:23;101287.88;;;21.64;59.34
51313;BME280;37397;53.226;10.400;2023-08-12T01:55:52;101280.47;;;21.63;59.46
51313;BME280;37397;53.226;10.400;2023-08-12T01:58:18;101273.66;;;21.61;59.35
51313;BME280;37397;53.226;10.400;2023-08-12T02:00:45;101272.06;;;21.60;59.50
51313;BME280;37397;53.226;10.400;2023-08-12T02:03:11;101267.59;;;21.59;59.51
51313;BME280;37397;53.226;10.400;2023-08-12T02:05:38;101271.84;;;21.58;59.59
51313;BME280;37397;53.226;10.400;2023-08-12T02:08:05;101263.47;;;21.54;59.52
51313;BME280;37397;53.226;10.400;2023-08-12T02:10:34;101268.47;;;21.54;59.49
51313;BME280;37397;53.226;10.400;2023-08-12T02:13:00;101275.63;;;21.53;59.45
51313;BME280;37397;53.226;10.400;2023-08-12T02:15:26;101268.25;;;21.52;59.39
51313;BME280;37397;53.226;10.400;2023-08-12T02:17:53;101257.94;;;21.51;59.37
51313;BME280;37397;53.226;10.400;2023-08-12T02:20:20;101250.59;;;21.49;59.49
51313;BME280;37397;53.226;10.400;2023-08-12T02:22:46;101247.41;;;21.47;59.57
51313;BME280;37397;53.226;10.400;2023-08-12T02:25:13;101247.16;;;21.45;59.39
51313;BME280;37397;53.226;10.400;2023-08-12T02:27:39;101239.00;;;21.44;59.38
51313;BME280;37397;53.226;10.400;2023-08-12T02:30:06;101242.22;;;21.40;59.42
51313;BME280;37397;53.226;10.400;2023-08-12T02:32:33;101245.34;;;21.42;59.36
51313;BME280;37397;53.226;10.400;2023-08-12T02:34:59;101242.22;;;21.40;59.47
51313;BME280;37397;53.226;10.400;2023-08-12T02:37:26;101240.66;;;21.39;59.45
51313;BME280;37397;53.226;10.400;2023-08-12T02:39:52;101233.84;;;21.37;59.44
51313;BME280;37397;53.226;10.400;2023-08-12T02:42:20;101234.38;;;21.35;59.45
51313;BME280;37397;53.226;10.400;2023-08-12T02:44:46;101227.00;;;21.34;59.65
51313;BME280;37397;53.226;10.400;2023-08-12T02:47:13;101229.66;;;21.32;59.50
51313;BME280;37397;53.226;10.400;2023-08-12T02:49:40;101227.88;;;21.29;59.56
51313;BME280;37397;53.226;10.400;2023-08-12T02:52:07;101219.16;;;21.29;59.57
51313;BME280;37397;53.226;10.400;2023-08-12T02:54:33;101221.84;;;21.27;59.74
51313;BME280;37397;53.226;10.400;2023-08-12T02:57:00;101221.84;;;21.27;59.79
51313;BME280;37397;53.226;10.400;2023-08-12T02:59:26;101213.97;;;21.22;59.71
51313;BME280;37397;53.226;10.400;2023-08-12T03:01:53;101222.13;;;21.23;59.79
51313;BME280;37397;53.226;10.400;2023-08-12T03:04:20;101215.31;;;21.21;59.63
51313;BME280;37397;53.226;10.400;2023-08-12T03:06:49;101213.19;;;21.21;59.72
51313;BME280;37397;53.226;10.400;2023-08-12T03:09:15;101213.72;;;21.20;59.90
51313;BME280;37397;53.226;10.400;2023-08-12T03:11:44;101216.94;;;21.16;59.86
51313;BME280;37397;53.226;10.400;2023-08-12T03:14:11;101211.38;;;21.18;59.70
51313;BME280;37397;53.226;10.400;2023-08-12T03:16:37;101219.31;;;21.18;60.06
51313;BME280;37397;53.226;10.400;2023-08-12T03:19:04;101216.94;;;21.16;60.01
51313;BME280;37397;53.226;10.400;2023-08-12T03:21:30;101206.44;;;21.13;59.91
51313;BME280;37397;53.226;10.400;2023-08-12T03:23:58;101191.38;;;21.15;60.04
51313;BME280;37397;53.226;10.400;2023-08-12T03:26:24;101209.34;;;21.13;60.06
51313;BME280;37397;53.226;10.400;2023-08-12T03:28:53;101204.06;;;21.11;60.09
51313;BME280;37397;53.226;10.400;2023-08-12T03:31:20;101195.16;;;21.09;59.95
51313;BME280;37397;53.226;10.400;2023-08-12T03:33:47;101200.94;;;21.09;59.87
51313;BME280;37397;53.226;10.400;2023-08-12T03:36:14;101198.59;;;21.08;60.00
51313;BME280;37397;53.226;10.400;2023-08-12T03:38:40;101194.88;;;21.07;60.12
51313;BME280;37397;53.226;10.400;2023-08-12T03:41:11;101186.75;;;21.06;60.14
51313;BME280;37397;53.226;10.400;2023-08-12T03:43:39;101187.28;;;21.04;59.91
51313;BME280;37397;53.226;10.400;2023-08-12T03:46:06;101191.53;;;21.03;60.01
51313;BME280;37397;53.226;10.400;2023-08-12T03:48:32;101182.59;;;21.01;60.06
51313;BME280;37397;53.226;10.400;2023-08-12T03:50:59;101189.72;;;21.00;60.09
51313;BME280;37397;53.226;10.400;2023-08-12T03:53:26;101183.13;;;21.00;60.10
51313;BME280;37397;53.226;10.400;2023-08-12T03:55:53;101182.34;;;20.99;60.08
51313;BME280;37397;53.226;10.400;2023-08-12T03:58:20;101178.97;;;20.95;60.31
51313;BME280;37397;53.226;10.400;2023-08-12T04:00:46;101174.72;;;20.96;60.34
51313;BME280;37397;53.226;10.400;2023-08-12T04:03:14;101184.78;;;20.95;60.23
51313;BME280;37397;53.226;10.400;2023-08-12T04:05:48;101178.75;;;20.93;60.32
51313;BME280;37397;53.226;10.400;2023-08-12T04:08:16;101183.19;;;20.94;60.52
51313;BME280;37397;53.226;10.400;2023-08-12T04:10:46;101198.25;;;20.92;60.31
51313;BME280;37397;53.226;10.400;2023-08-12T04:13:14;101227.25;;;20.92;60.63
51313;BME280;37397;53.226;10.400;2023-08-12T04:15:42;101200.38;;;20.92;60.44
51313;BME280;37397;53.226;10.400;2023-08-12T04:18:09;101186.97;;;20.89;60.56
51313;BME280;37397;53.226;10.400;2023-08-12T04:20:37;101198.00;;;20.90;60.51
51313;BME280;37397;53.226;10.400;2023-08-12T04:23:03;101200.91;;;20.90;60.60
51313;BME280;37397;53.226;10.400;2023-08-12T04:25:29;101202.78;;;20.88;60.68
51313;BME280;37397;53.226;10.400;2023-08-12T04:27:56;101223.88;;;20.88;60.57
51313;BME280;37397;53.226;10.400;2023-08-12T04:30:23;101244.75;;;20.87;60.63
51313;BME280;37397;53.226;10.400;2023-08-12T04:32:50;101241.84;;;20.87;60.51
51313;BME280;37397;53.226;10.400;2023-08-12T04:35:17;101228.66;;;20.86;60.94
51313;BME280;37397;53.226;10.400;2023-08-12T04:37:44;101208.91;;;20.84;61.37
51313;BME280;37397;53.226;10.400;2023-08-12T04:40:11;101206.78;;;20.85;62.09
51313;BME280;37397;53.226;10.400;2023-08-12T04:42:39;101203.88;;;20.85;61.61
51313;BME280;37397;53.226;10.400;2023-08-12T04:45:07;101184.09;;;20.83;61.51
51313;BME280;37397;53.226;10.400;2023-08-12T04:47:34;101205.22;;;20.84;61.20
51313;BME280;37397;53.226;10.400;2023-08-12T04:50:00;101186.22;;;20.83;61.56
51313;BME280;37397;53.226;10.400;2023-08-12T04:52:29;101167.50;;;20.84;61.51
51313;BME280;37397;53.226;10.400;2023-08-12T04:54:55;101166.78;;;20.77;61.36
51313;BME280;37397;53.226;10.400;2023-08-12T04:57:23;101166.69;;;20.83;61.22
51313;BME280;37397;53.226;10.400;2023-08-12T04:59:50;101158.53;;;20.82;61.40
51313;BME280;37397;53.226;10.400;2023-08-12T05:02:16;101160.13;;;20.83;61.56
51313;BME280;37397;53.226;10.400;2023-08-12T05:04:51;101158.53;;;20.82;61.93
51313;BME280;37397;53.226;10.400;2023-08-12T05:07:20;101173.06;;;20.82;61.71
51313;BME280;37397;53.226;10.400;2023-08-12T05:09:46;101169.38;;;20.81;61.87
51313;BME280;37397;53.226;10.400;2023-08-12T05:12:14;101179.66;;;20.82;61.86
51313;BME280;37397;53.226;10.400;2023-08-12T05:14:41;101186.22;;;20.83;62.06
51313;BME280;37397;53.226;10.400;2023-08-12T05:17:08;101183.34;;;20.83;62.00
51313;BME280;37397;53.226;10.400;2023-08-12T05:19:35;101179.66;;;20.82;62.05
51313;BME280;37397;53.226;10.400;2023-08-12T05:22:02;101186.47;;;20.85;62.21
51313;BME280;37397;53.226;10.400;2023-08-12T05:24:28;101189.13;;;20.83;62.13
51313;BME280;37397;53.226;10.400;2023-08-12T05:26:55;101189.13;;;20.83;62.08
51313;BME280;37397;53.226;10.400;2023-08-12T05:29:22;101199.66;;;20.86;62.10
51313;BME280;37397;53.226;10.400;2023-08-12T05:31:49;101208.34;;;20.86;62.24
51313;BME280;37397;53.226;10.400;2023-08-12T05:34:15;101202.31;;;20.84;62.31
51313;BME280;37397;53.226;10.400;2023-08-12T05:36:42;101211.25;;;20.86;62.00
51313;BME280;37397;53.226;10.400;2023-08-12T05:39:08;101212.03;;;20.86;61.99
51313;BME280;37397;53.226;10.400;2023-08-12T05:41:35;101212.03;;;20.86;61.86
51313;BME280;37397;53.226;10.400;2023-08-12T05:44:02;101215.72;;;20.87;62.03
51313;BME280;37397;53.226;10.400;2023-08-12T05:46:28;101214.16;;;20.86;62.27
51313;BME280;37397;53.226;10.400;2023-08-12T05:48:55;101208.59;;;20.88;61.82
51313;BME280;37397;53.226;10.400;2023-08-12T05:51:21;101204.66;;;20.85;62.01
51313;BME280;37397;53.226;10.400;2023-08-12T05:53:48;101199.88;;;20.88;62.21
51313;BME280;37397;53.226;10.400;2023-08-12T05:56:14;101198.56;;;20.89;62.09
51313;BME280;37397;53.226;10.400;2023-08-12T05:58:41;101196.75;;;20.86;62.46
51313;BME280;37397;53.226;10.400;2023-08-12T06:01:07;101213.28;;;20.91;62.37
51313;BME280;37397;53.226;10.400;2023-08-12T06:03:34;101210.41;;;20.91;62.37
51313;BME280;37397;53.226;10.400;2023-08-12T06:06:00;101209.06;;;20.92;62.45
51313;BME280;37397;53.226;10.400;2023-08-12T06:08:27;101200.38;;;20.92;62.21
51313;BME280;37397;53.226;10.400;2023-08-12T06:10:55;101199.06;;;20.93;62.33
51313;BME280;37397;53.226;10.400;2023-08-12T06:13:21;101194.78;;;20.94;62.45
51313;BME280;37397;53.226;10.400;2023-08-12T06:15:48;101205.09;;;20.95;62.57
51313;BME280;37397;53.226;10.400;2023-08-12T06:18:14;101206.63;;;20.96;62.47
51313;BME280;37397;53.226;10.400;2023-08-12T06:20:41;101193.72;;;20.97;62.77
51313;BME280;37397;53.226;10.400;2023-08-12T06:23:07;101202.63;;;20.99;62.86
51313;BME280;37397;53.226;10.400;2023-08-12T06:25:34;101192.63;;;21.00;63.22
51313;BME280;37397;53.226;10.400;2023-08-12T06:28:02;101189.16;;;21.02;63.36
51313;BME280;37397;53.226;10.400;2023-08-12T06:30:30;101189.94;;;21.02;63.36
51313;BME280;37397;53.226;10.400;2023-08-12T06:32:57;101193.09;;;21.04;63.27
51313;BME280;37397;53.226;10.400;2023-08-12T06:35:24;101183.84;;;21.06;63.13
51313;BME280;37397;53.226;10.400;2023-08-12T06:37:50;101187.53;;;21.06;63.24
51313;BME280;37397;53.226;10.400;2023-08-12T06:40:17;101189.34;;;21.09;63.15
51313;BME280;37397;53.226;10.400;2023-08-12T06:42:43;101200.41;;;21.11;63.22
51313;BME280;37397;53.226;10.400;2023-08-12T06:45:10;101196.69;;;21.10;63.20
51313;BME280;37397;53.226;10.400;2023-08-12T06:47:37;101193.50;;;21.14;63.51
51313;BME280;37397;53.226;10.400;2023-08-12T06:50:04;101190.06;;;21.16;63.38
51313;BME280;37397;53.226;10.400;2023-08-12T06:52:30;101187.38;;;21.18;63.49
51313;BME280;37397;53.226;10.400;2023-08-12T06:54:57;101185.25;;;21.18;63.64
51313;BME280;37397;53.226;10.400;2023-08-12T06:57:23;101179.13;;;21.22;63.80
51313;BME280;37397;53.226;10.400;2023-08-12T06:59:50;101183.06;;;21.24;63.49
51313;BME280;37397;53.226;10.400;2023-08-12T07:02:16;101177.47;;;21.26;63.89
51313;BME280;37397;53.226;10.400;2023-08-12T07:04:43;101173.25;;;21.27;63.75
51313;BME280;37397;53.226;10.400;2023-08-12T07:07:09;101178.75;;;21.31;63.94
51313;BME280;37397;53.226;10.400;2023-08-12T07:09:36;101177.41;;;21.32;64.23
51313;BME280;37397;53.226;10.400;2023-08-12T07:12:02;101167.34;;;21.33;64.08
51313;BME280;37397;53.226;10.400;2023-08-12T07:14:30;101164.72;;;21.35;64.24
51313;BME280;37397;53.226;10.400;2023-08-12T07:16:56;101170.97;;;21.39;64.17
51313;BME280;37397;53.226;10.400;2023-08-12T07:19:23;101168.06;;;21.39;64.07
51313;BME280;37397;53.226;10.400;2023-08-12T07:21:50;101177.25;;;21.43;64.11
51313;BME280;37397;53.226;10.400;2023-08-12T07:24:17;101179.06;;;21.46;64.00
51313;BME280;37397;53.226;10.400;2023-08-12T07:26:43;101181.97;;;21.46;64.13
51313;BME280;37397;53.226;10.400;2023-08-12T07:29:10;101169.28;;;21.49;64.23
51313;BME280;37397;53.226;10.400;2023-08-12T07:31:36;101168.19;;;21.53;64.04
51313;BME280;37397;53.226;10.400;2023-08-12T07:34:03;101168.94;;;21.53;64.11
51313;BME280;37397;53.226;10.400;2023-08-12T07:36:29;101167.28;;;21.58;64.15
51313;BME280;37397;53.226;10.400;2023-08-12T07:38:56;101161.50;;;21.58;64.06
51313;BME280;37397;53.226;10.400;2023-08-12T07:41:22;101154.31;;;21.59;64.26
51313;BME280;37397;53.226;10.400;2023-08-12T07:43:50;101159.28;;;21.64;64.09
51313;BME280;37397;53.226;10.400;2023-08-12T07:46:16;101148.44;;;21.64;63.98
51313;BME280;37397;53.226;10.400;2023-08-12T07:48:43;101146.56;;;21.67;64.27
51313;BME280;37397;53.226;10.400;2023-08-12T07:51:10;101146.78;;;21.69;64.31
51313;BME280;37397;53.226;10.400;2023-08-12T07:53:36;101148.59;;;21.72;64.09
51313;BME280;37397;53.226;10.400;2023-08-12T07:56:03;101150.38;;;21.75;64.37
51313;BME280;37397;53.226;10.400;2023-08-12T07:58:29;101162.22;;;21.77;64.42
51313;BME280;37397;53.226;10.400;2023-08-12T08:00:56;101150.06;;;21.79;64.40
51313;BME280;37397;53.226;10.400;2023-08-12T08:03:22;101153.19;;;21.81;64.35
51313;BME280;37397;53.226;10.400;2023-08-12T08:05:49;101149.72;;;21.82;64.35
51313;BME280;37397;53.226;10.400;2023-08-12T08:08:16;101158.66;;;21.84;64.27
51313;BME280;37397;53.226;10.400;2023-08-12T08:10:42;101148.63;;;21.85;64.24
51313;BME280;37397;53.226;10.400;2023-08-12T08:13:09;101149.09;;;21.90;64.37
51313;BME280;37397;53.226;10.400;2023-08-12T08:15:35;101146.41;;;21.92;64.32
51313;BME280;37397;53.226;10.400;2023-08-12T08:18:01;101142.94;;;21.93;64.29
51313;BME280;37397;53.226;10.400;2023-08-12T08:20:30;101141.84;;;21.96;64.49
51313;BME280;37397;53.226;10.400;2023-08-12T08:22:57;101136.81;;;21.97;64.33
51313;BME280;37397;53.226;10.400;2023-08-12T08:25:23;101141.50;;;22.00;64.43
51313;BME280;37397;53.226;10.400;2023-08-12T08:27:50;101136.72;;;22.02;64.42
51313;BME280;37397;53.226;10.400;2023-08-12T08:30:16;101144.06;;;22.03;64.60
51313;BME280;37397;53.226;10.400;2023-08-12T08:32:43;101143.53;;;22.05;64.69
51313;BME280;37397;53.226;10.400;2023-08-12T08:35:09;101145.09;;;22.06;64.14
51313;BME280;37397;53.226;10.400;2023-08-12T08:37:36;101145.31;;;22.08;64.21
51313;BME280;37397;53.226;10.400;2023-08-12T08:40:03;101147.13;;;22.11;64.06
51313;BME280;37397;53.226;10.400;2023-08-12T08:42:29;101146.00;;;22.14;64.25
51313;BME280;37397;53.226;10.400;2023-08-12T08:45:00;101139.63;;;22.16;64.45
51313;BME280;37397;53.226;10.400;2023-08-12T08:47:28;101137.72;;;22.18;64.43
51313;BME280;37397;53.226;10.400;2023-08-12T08:49:55;101149.59;;;22.20;64.51
51313;BME280;37397;53.226;10.400;2023-08-12T08:52:23;101146.91;;;22.22;64.50
51313;BME280;37397;53.226;10.400;2023-08-12T08:54:50;101136.84;;;22.24;65.02
51313;BME280;37397;53.226;10.400;2023-08-12T08:57:19;101133.63;;;22.27;65.09
51313;BME280;37397;53.226;10.400;2023-08-12T08:59:50;101130.94;;;22.29;64.63
51313;BME280;37397;53.226;10.400;2023-08-12T09:02:24;101131.97;;;22.32;64.40
51313;BME280;37397;53.226;10.400;2023-08-12T09:04:52;101130.06;;;22.34;64.21
51313;BME280;37397;53.226;10.400;2023-08-12T09:07:20;101136.88;;;22.37;64.51
51313;BME280;37397;53.226;10.400;2023-08-12T09:09:48;101128.16;;;22.37;64.25
51313;BME280;37397;53.226;10.400;2023-08-12T09:12:16;101131.50;;;22.41;64.24
51313;BME280;37397;53.226;10.400;2023-08-12T09:14:43;101129.41;;;22.42;64.30
51313;BME280;37397;53.226;10.400;2023-08-12T09:17:10;101135.91;;;22.48;64.42
51313;BME280;37397;53.226;10.400;2023-08-12T09:19:37;101133.75;;;22.48;64.41
51313;BME280;37397;53.226;10.400;2023-08-12T09:22:04;101141.03;;;22.55;64.31
51313;BME280;37397;53.226;10.400;2023-08-12T09:24:31;101138.88;;;22.55;63.97
51313;BME280;37397;53.226;10.400;2023-08-12T09:26:58;101139.34;;;22.60;64.12
51313;BME280;37397;53.226;10.400;2023-08-12T09:29:32;101133.75;;;22.62;64.16
51313;BME280;37397;53.226;10.400;2023-08-12T09:32:25;101125.03;;;22.62;64.29
51313;BME280;37397;53.226;10.400;2023-08-12T09:34:55;101128.38;;;22.66;63.91
51313;BME280;37397;53.226;10.400;2023-08-12T09:37:23;101132.53;;;22.70;64.07
51313;BME280;37397;53.226;10.400;2023-08-12T09:39:51;101123.25;;;22.72;63.93
51313;BME280;37397;53.226;10.400;2023-08-12T09:42:18;101122.88;;;22.75;64.02
51313;BME280;37397;53.226;10.400;2023-08-12T09:44:45;101106.22;;;22.76;63.93
51313;BME280;37397;53.226;10.400;2023-08-12T09:47:13;101119.06;;;22.81;63.88
51313;BME280;37397;53.226;10.400;2023-08-12T09:49:40;101109.78;;;22.82;64.00
51313;BME280;37397;53.226;10.400;2023-08-12T09:52:07;101113.16;;;22.86;63.93
51313;BME280;37397;53.226;10.400;2023-08-12T09:54:34;101108.31;;;22.89;63.64
51313;BME280;37397;53.226;10.400;2023-08-12T09:57:04;101104.84;;;22.90;63.71
51313;BME280;37397;53.226;10.400;2023-08-12T09:59:32;101099.22;;;22.92;63.80
51313;BME280;37397;53.226;10.400;2023-08-12T10:01:59;101101.00;;;22.95;63.88
51313;BME280;37397;53.226;10.400;2023-08-12T10:04:33;101098.56;;;23.00;64.07
51313;BME280;37397;53.226;10.400;2023-08-12T10:07:02;101100.34;;;23.03;63.49
51313;BME280;37397;53.226;10.400;2023-08-12T10:09:28;101094.16;;;23.06;63.57
51313;BME280;37397;53.226;10.400;2023-08-12T10:11:55;101091.50;;;23.08;63.88
51313;BME280;37397;53.226;10.400;2023-08-12T10:14:23;101085.34;;;23.12;63.97
51313;BME280;37397;53.226;10.400;2023-08-12T10:16:50;101091.38;;;23.14;63.93
51313;BME280;37397;53.226;10.400;2023-08-12T10:19:17;101090.81;;;23.16;64.14
51313;BME280;37397;53.226;10.400;2023-08-12T10:21:45;101090.66;;;23.21;64.12
51313;BME280;37397;53.226;10.400;2023-08-12T10:24:13;101082.38;;;23.25;64.23
51313;BME280;37397;53.226;10.400;2023-08-12T10:26:42;101076.56;;;23.25;63.97
51313;BME280;37397;53.226;10.400;2023-08-12T10:29:09;101080.09;;;23.32;64.09
51313;BME280;37397;53.226;10.400;2023-08-12T10:31:35;101081.66;;;23.33;63.82
51313;BME280;37397;53.226;10.400;2023-08-12T10:34:04;101085.56;;;23.35;64.11
51313;BME280;37397;53.226;10.400;2023-08-12T10:36:31;101077.84;;;23.38;63.74
51313;BME280;37397;53.226;10.400;2023-08-12T10:38:58;101092.25;;;23.43;63.97
51313;BME280;37397;53.226;10.400;2023-08-12T10:41:25;101084.28;;;23.44;63.95
51313;BME280;37397;53.226;10.400;2023-08-12T10:43:59;101082.19;;;23.44;63.66
51313;BME280;37397;53.226;10.400;2023-08-12T10:46:34;101084.72;;;23.48;63.27
51313;BME280;37397;53.226;10.400;2023-08-12T10:49:09;101074.41;;;23.47;63.33
51313;BME280;37397;53.226;10.400;2023-08-12T10:51:48;101066.31;;;23.53;63.28
51313;BME280;37397;53.226;10.400;2023-08-12T10:54:16;101070.25;;;23.56;63.37
51313;BME280;37397;53.226;10.400;2023-08-12T10:57:12;101073.72;;;23.54;63.41
51313;BME280;37397;53.226;10.400;2023-08-12T11:04:56;101064.25;;;23.61;63.13
51313;BME280;37397;53.226;10.400;2023-08-12T11:07:47;101058.63;;;23.63;63.16
51313;BME280;37397;53.226;10.400;2023-08-12T11:10:22;101054.38;;;23.64;63.01
51313;BME280;37397;53.226;10.400;2023-08-12T11:15:19;101043.16;;;23.69;63.32
51313;BME280;37397;53.226;10.400;2023-08-12T11:17:55;101041.59;;;23.67;63.15
51313;BME280;37397;53.226;10.400;2023-08-12T11:20:21;101039.13;;;23.72;63.40
51313;BME280;37397;53.226;10.400;2023-08-12T11:22:48;101040.66;;;23.73;63.33
51313;BME280;37397;53.226;10.400;2023-08-12T11:25:16;101035.06;;;23.75;63.19
51313;BME280;37397;53.226;10.400;2023-08-12T11:27:47;101027.66;;;23.74;62.97
51313;BME280;37397;53.226;10.400;2023-08-12T11:30:15;101040.53;;;23.78;63.40
51313;BME280;37397;53.226;10.400;2023-08-12T11:32:43;101031.22;;;23.80;63.08
51313;BME280;37397;53.226;10.400;2023-08-12T11:35:12;101031.41;;;23.82;63.13
51313;BME280;37397;53.226;10.400;2023-08-12T11:37:40;101036.69;;;23.83;63.23
51313;BME280;37397;53.226;10.400;2023-08-12T11:40:08;101039.81;;;23.85;63.03
51313;BME280;37397;53.226;10.400;2023-08-12T11:42:36;101028.16;;;23.85;63.34
51313;BME280;37397;53.226;10.400;2023-08-12T11:45:04;101033.63;;;23.89;63.09
51313;BME280;37397;53.226;10.400;2023-08-12T11:47:31;101035.19;;;23.90;62.87
51313;BME280;37397;53.226;10.400;2023-08-12T11:49:58;101031.69;;;23.92;62.91
51313;BME280;37397;53.226;10.400;2023-08-12T11:52:25;101020.81;;;23.92;62.95
51313;BME280;37397;53.226;10.400;2023-08-12T11:54:52;101023.97;;;23.94;63.08
51313;BME280;37397;53.226;10.400;2023-08-12T11:57:19;101016.97;;;23.97;62.88
51313;BME280;37397;53.226;10.400;2023-08-12T11:59:48;101025.94;;;23.99;63.04
51313;BME280;37397;53.226;10.400;2023-08-12T12:02:15;101019.31;;;23.99;62.77
51313;BME280;37397;53.226;10.400;2023-08-12T12:04:42;101020.09;;;23.99;62.85
51313;BME280;37397;53.226;10.400;2023-08-12T12:07:23;101014.28;;;23.99;62.58
51313;BME280;37397;53.226;10.400;2023-08-12T12:09:51;101023.41;;;24.03;62.62
51313;BME280;37397;53.226;10.400;2023-08-12T12:12:25;101017.56;;;24.03;62.33
51313;BME280;37397;53.226;10.400;2023-08-12T12:14:52;100992.16;;;24.04;62.72
51313;BME280;37397;53.226;10.400;2023-08-12T12:17:21;100989.63;;;24.08;62.33
51313;BME280;37397;53.226;10.400;2023-08-12T12:19:57;100981.69;;;24.09;62.60
51313;BME280;37397;53.226;10.400;2023-08-12T12:22:31;100983.22;;;24.10;62.32
51313;BME280;37397;53.226;10.400;2023-08-12T12:25:06;100968.88;;;24.12;62.38
51313;BME280;37397;53.226;10.400;2023-08-12T12:27:34;100970.41;;;24.13;62.48
51313;BME280;37397;53.226;10.400;2023-08-12T12:30:01;100978.78;;;24.16;62.82
51313;BME280;37397;53.226;10.400;2023-08-12T12:32:27;100959.16;;;24.17;62.67
51313;BME280;37397;53.226;10.400;2023-08-12T12:34:54;100961.13;;;24.22;62.67
51313;BME280;37397;53.226;10.400;2023-08-12T12:37:21;100965.00;;;24.25;62.36
51313;BME280;37397;53.226;10.400;2023-08-12T12:39:47;100968.16;;;24.27;62.85
51313;BME280;37397;53.226;10.400;2023-08-12T12:42:14;100961.16;;;24.30;62.72
51313;BME280;37397;53.226;10.400;2023-08-12T12:44:41;100967.41;;;24.34;62.90
51313;BME280;37397;53.226;10.400;2023-08-12T12:47:08;100957.28;;;24.35;62.87
51313;BME280;37397;53.226;10.400;2023-08-12T12:49:38;100960.59;;;24.39;62.58
51313;BME280;37397;53.226;10.400;2023-08-12T12:52:04;100949.94;;;24.42;62.64